Time,TemperatureF,DewpointF,PressureIn,WindDirection,WindDirectionDegrees,WindSpeedMPH,WindSpeedGustMPH,Humidity,HourlyPrecipIn,Conditions,Clouds,dailyrainin,SoftwareType,DateUTC
2013-04-22 00:00:00,42.0,37.2,30.26,NE,45,5.0,11.0,83,0.00,,,-99.99,Weather View 32 v60,2013-04-22 05:00:00,
2013-04-22 00:15:00,42.0,37.2,30.25,ENE,67,3.0,10.0,83,0.00,,,-99.99,Weather View 32 v60,2013-04-22 05:15:00,
2013-04-22 00:19:00,42.0,37.2,30.25,ENE,67,3.0,10.0,83,0.00,,,-99.99,Weather View 32 v60,2013-04-22 05:19:00,
2013-04-22 00:30:00,42.0,37.2,30.25,NNE,22,1.0,9.0,83,0.00,,,-99.99,Weather View 32 v60,2013-04-22 05:30:00,
2013-04-22 00:45:00,42.0,37.2,30.24,ENE,67,0.0,9.0,83,0.00,,,-99.99,Weather View 32 v60,2013-04-22 05:45:00,
2013-04-22 01:00:00,42.0,37.2,30.25,NNE,22,0.0,9.0,83,0.00,,,-99.99,Weather View 32 v60,2013-04-22 06:00:00,
2013-04-22 01:15:00,41.0,36.2,30.25,NNE,22,2.0,9.0,83,0.00,,,-99.99,Weather View 32 v60,2013-04-22 06:15:00,
2013-04-22 01:30:00,41.0,36.5,30.24,ENE,67,4.0,10.0,84,0.00,,,-99.99,Weather View 32 v60,2013-04-22 06:30:00,
2013-04-22 01:45:00,41.0,36.5,30.24,ENE,67,2.0,12.0,84,0.00,,,-99.99,Weather View 32 v60,2013-04-22 06:45:00,
2013-04-22 02:00:00,40.0,35.6,30.25,NE,45,10.0,12.0,84,0.00,,,-99.99,Weather View 32 v60,2013-04-22 07:00:00,
2013-04-22 02:15:00,40.0,35.6,30.25,East,90,0.0,15.0,84,0.00,,,-99.99,Weather View 32 v60,2013-04-22 07:15:00,
2013-04-22 02:20:00,40.0,35.6,30.25,East,90,0.0,15.0,84,0.00,,,-99.99,Weather View 32 v60,2013-04-22 07:20:00,
2013-04-22 02:30:00,40.0,35.6,30.24,East,90,0.0,15.0,84,0.00,,,-99.99,Weather View 32 v60,2013-04-22 07:30:00,
2013-04-22 02:45:00,39.0,34.9,30.24,East,90,0.0,15.0,85,0.00,,,-99.99,Weather View 32 v60,2013-04-22 07:45:00,
2013-04-22 03:00:00,39.0,34.9,30.24,ENE,67,0.0,15.0,85,0.00,,,-99.99,Weather View 32 v60,2013-04-22 08:00:00,
2013-04-22 03:15:00,39.0,34.9,30.23,ENE,67,6.0,16.0,85,0.00,,,-99.99,Weather View 32 v60,2013-04-22 08:15:00,
2013-04-22 03:21:00,39.0,34.9,30.23,ENE,67,6.0,16.0,85,0.00,,,-99.99,Weather View 32 v60,2013-04-22 08:21:00,
2013-04-22 03:30:00,38.0,33.9,30.23,East,90,6.0,16.0,85,0.00,,,-99.99,Weather View 32 v60,2013-04-22 08:30:00,
2013-04-22 03:45:00,38.0,33.9,30.23,ENE,67,2.0,16.0,85,0.00,,,-99.99,Weather View 32 v60,2013-04-22 08:45:00,
2013-04-22 04:00:00,38.0,33.9,30.22,ENE,67,6.0,16.0,85,0.00,,,-99.99,Weather View 32 v60,2013-04-22 09:00:00,
2013-04-22 04:15:00,38.0,33.9,30.23,ENE,67,6.0,16.0,85,0.00,,,-99.99,Weather View 32 v60,2013-04-22 09:15:00,
2013-04-22 04:21:00,38.0,33.9,30.23,ENE,67,6.0,16.0,85,0.00,,,-99.99,Weather View 32 v60,2013-04-22 09:21:00,
2013-04-22 04:30:00,38.0,33.6,30.23,ENE,67,5.0,15.0,84,0.00,,,-99.99,Weather View 32 v60,2013-04-22 09:30:00,
2013-04-22 04:45:00,38.0,33.6,30.23,ENE,67,2.0,15.0,84,0.00,,,-99.99,Weather View 32 v60,2013-04-22 09:45:00,
2013-04-22 05:00:00,38.0,33.6,30.22,ESE,112,3.0,15.0,84,0.00,,,-99.99,Weather View 32 v60,2013-04-22 10:00:00,
2013-04-22 05:15:00,38.0,33.6,30.23,ENE,67,4.0,14.0,84,0.00,,,-99.99,Weather View 32 v60,2013-04-22 10:15:00,
2013-04-22 05:22:00,38.0,33.6,30.23,ENE,67,4.0,14.0,84,0.00,,,-99.99,Weather View 32 v60,2013-04-22 10:22:00,
2013-04-22 05:30:00,38.0,33.9,30.22,ENE,67,6.0,15.0,85,0.00,,,-99.99,Weather View 32 v60,2013-04-22 10:30:00,
2013-04-22 05:45:00,38.0,33.9,30.21,ENE,67,7.0,15.0,85,0.00,,,-99.99,Weather View 32 v60,2013-04-22 10:45:00,
2013-04-22 06:00:00,38.0,33.9,30.21,East,90,10.0,15.0,85,0.00,,,-99.99,Weather View 32 v60,2013-04-22 11:00:00,
2013-04-22 06:15:00,37.0,32.9,30.20,East,90,9.0,20.0,85,0.00,,,-99.99,Weather View 32 v60,2013-04-22 11:15:00,
2013-04-22 06:23:00,37.0,32.9,30.20,East,90,9.0,20.0,85,0.00,,,-99.99,Weather View 32 v60,2013-04-22 11:23:00,
2013-04-22 06:30:00,37.0,33.2,30.20,ENE,67,10.0,21.0,86,0.00,,,-99.99,Weather View 32 v60,2013-04-22 11:30:00,
2013-04-22 06:45:00,37.0,33.2,30.20,ENE,67,6.0,21.0,86,0.00,,,-99.99,Weather View 32 v60,2013-04-22 11:45:00,
2013-04-22 07:00:00,37.0,32.6,30.20,East,90,7.0,21.0,84,0.00,,,-99.99,Weather View 32 v60,2013-04-22 12:00:00,
2013-04-22 07:15:00,37.0,32.6,30.21,ENE,67,13.0,21.0,84,0.00,,,-99.99,Weather View 32 v60,2013-04-22 12:15:00,
2013-04-22 07:23:00,37.0,32.6,30.21,ENE,67,13.0,21.0,84,0.00,,,-99.99,Weather View 32 v60,2013-04-22 12:23:00,
2013-04-22 07:30:00,37.0,32.6,30.22,ENE,67,8.0,21.0,84,0.00,,,-99.99,Weather View 32 v60,2013-04-22 12:30:00,
2013-04-22 07:45:00,37.0,32.3,30.22,ENE,67,7.0,21.0,83,0.00,,,-99.99,Weather View 32 v60,2013-04-22 12:45:00,
2013-04-22 08:00:00,37.0,32.0,30.22,ENE,67,7.0,21.0,82,0.00,,,-99.99,Weather View 32 v60,2013-04-22 13:00:00,
2013-04-22 08:15:00,36.0,30.7,30.23,East,90,6.0,21.0,81,0.00,,,-99.99,Weather View 32 v60,2013-04-22 13:15:00,
2013-04-22 08:24:00,36.0,30.7,30.23,East,90,6.0,21.0,81,0.00,,,-99.99,Weather View 32 v60,2013-04-22 13:24:00,
2013-04-22 08:30:00,36.0,30.4,30.22,ENE,67,12.0,18.0,80,0.00,,,-99.99,Weather View 32 v60,2013-04-22 13:30:00,
2013-04-22 08:45:00,36.0,29.8,30.22,East,90,7.0,18.0,78,0.00,,,-99.99,Weather View 32 v60,2013-04-22 13:45:00,
2013-04-22 09:00:00,36.0,29.5,30.22,ENE,67,11.0,20.0,77,0.00,,,-99.99,Weather View 32 v60,2013-04-22 14:00:00,
2013-04-22 09:15:00,36.0,29.5,30.22,ENE,67,3.0,20.0,77,0.01,,,-99.99,Weather View 32 v60,2013-04-22 14:15:00,
2013-04-22 09:24:00,36.0,29.5,30.22,ENE,67,3.0,20.0,77,0.01,,,-99.99,Weather View 32 v60,2013-04-22 14:24:00,
2013-04-22 09:30:00,37.0,30.5,30.21,ENE,67,12.0,20.0,77,0.05,,,-99.99,Weather View 32 v60,2013-04-22 14:30:00,
2013-04-22 09:45:00,37.0,30.5,30.21,ENE,67,2.0,20.0,77,0.09,,,-99.99,Weather View 32 v60,2013-04-22 14:45:00,
2013-04-22 10:00:00,37.0,30.5,30.23,ENE,67,1.0,15.0,77,0.13,,,-99.99,Weather View 32 v60,2013-04-22 15:00:00,
2013-04-22 10:15:00,37.0,30.5,30.23,ENE,67,1.0,15.0,77,0.18,,,-99.99,Weather View 32 v60,2013-04-22 15:15:00,
2013-04-22 10:25:00,37.0,30.5,30.23,ENE,67,1.0,15.0,77,0.18,,,-99.99,Weather View 32 v60,2013-04-22 15:25:00,
2013-04-22 10:45:00,37.0,30.5,30.20,NE,45,6.0,13.0,77,0.16,,,-99.99,Weather View 32 v60,2013-04-22 15:45:00,
2013-04-22 11:00:00,36.0,29.5,30.22,ENE,67,2.0,13.0,77,0.13,,,-99.99,Weather View 32 v60,2013-04-22 16:00:00,
2013-04-22 11:15:00,36.0,29.5,30.22,ENE,67,2.0,13.0,77,0.08,,,-99.99,Weather View 32 v60,2013-04-22 16:15:00,
2013-04-22 11:25:00,36.0,29.5,30.22,ENE,67,2.0,13.0,77,0.08,,,-99.99,Weather View 32 v60,2013-04-22 16:25:00,
2013-04-22 11:45:00,36.0,29.5,30.22,ENE,67,7.0,12.0,77,0.06,,,-99.99,Weather View 32 v60,2013-04-22 16:45:00,
2013-04-22 12:00:00,37.0,30.5,30.21,ENE,67,2.0,12.0,77,0.06,,,-99.99,Weather View 32 v60,2013-04-22 17:00:00,
2013-04-22 12:15:00,36.0,29.2,30.21,ENE,67,10.0,13.0,76,0.08,,,-99.99,Weather View 32 v60,2013-04-22 17:15:00,
2013-04-22 12:26:00,36.0,29.2,30.21,ENE,67,10.0,13.0,76,0.08,,,-99.99,Weather View 32 v60,2013-04-22 17:26:00,
2013-04-22 12:45:00,36.0,29.2,30.19,ENE,67,10.0,17.0,76,0.07,,,-99.99,Weather View 32 v60,2013-04-22 17:45:00,
2013-04-22 13:00:00,36.0,29.2,30.18,ENE,67,6.0,17.0,76,0.06,,,-99.99,Weather View 32 v60,2013-04-22 18:00:00,
2013-04-22 13:15:00,35.0,27.9,30.18,ENE,67,15.0,17.0,75,0.03,,,-99.99,Weather View 32 v60,2013-04-22 18:15:00,
2013-04-22 13:27:00,35.0,27.9,30.18,ENE,67,15.0,17.0,75,0.03,,,-99.99,Weather View 32 v60,2013-04-22 18:27:00,
2013-04-22 13:45:00,35.0,28.8,30.19,NE,45,9.0,19.0,78,0.01,,,-99.99,Weather View 32 v60,2013-04-22 18:45:00,
2013-04-22 14:00:00,35.0,30.1,30.20,ENE,67,9.0,19.0,82,0.01,,,-99.99,Weather View 32 v60,2013-04-22 19:00:00,
2013-04-22 14:15:00,35.0,30.7,30.20,NE,45,5.0,19.0,84,0.01,,,-99.99,Weather View 32 v60,2013-04-22 19:15:00,
2013-04-22 14:27:00,35.0,30.7,30.20,NE,45,5.0,19.0,84,0.01,,,-99.99,Weather View 32 v60,2013-04-22 19:27:00,
2013-04-22 14:45:00,35.0,30.9,30.20,ENE,67,6.0,21.0,85,0.01,,,-99.99,Weather View 32 v60,2013-04-22 19:45:00,
2013-04-22 15:00:00,34.0,29.7,30.22,ENE,67,15.0,21.0,84,0.02,,,-99.99,Weather View 32 v60,2013-04-22 20:00:00,
2013-04-22 15:15:00,33.0,28.7,30.22,ENE,67,7.0,21.0,84,0.03,,,-99.99,Weather View 32 v60,2013-04-22 20:15:00,
2013-04-22 15:28:00,33.0,28.7,30.22,ENE,67,7.0,21.0,84,0.03,,,-99.99,Weather View 32 v60,2013-04-22 20:28:00,
2013-04-22 15:45:00,33.0,28.7,30.24,SSE,157,0.0,19.0,84,0.02,,,-99.99,Weather View 32 v60,2013-04-22 20:45:00,
2013-04-22 16:00:00,32.0,27.4,30.24,NNE,22,9.0,19.0,83,0.02,,,-99.99,Weather View 32 v60,2013-04-22 21:00:00,
2013-04-22 16:15:00,32.0,26.8,30.24,ENE,67,3.0,19.0,81,0.01,,,-99.99,Weather View 32 v60,2013-04-22 21:15:00,
2013-04-22 16:28:00,32.0,26.8,30.24,ENE,67,3.0,19.0,81,0.01,,,-99.99,Weather View 32 v60,2013-04-22 21:28:00,
2013-04-22 16:45:00,32.0,26.2,30.23,NE,45,10.0,22.0,79,0.01,,,-99.99,Weather View 32 v60,2013-04-22 21:45:00,
2013-04-22 17:00:00,32.0,25.9,30.23,ENE,67,6.0,22.0,78,0.00,,,-99.99,Weather View 32 v60,2013-04-22 22:00:00,
2013-04-22 17:15:00,32.0,25.9,30.23,ENE,67,6.0,22.0,78,0.00,,,-99.99,Weather View 32 v60,2013-04-22 22:15:00,
2013-04-22 17:29:00,32.0,25.9,30.23,ENE,67,6.0,22.0,78,0.00,,,-99.99,Weather View 32 v60,2013-04-22 22:29:00,
2013-04-22 17:45:00,32.0,25.9,30.25,ENE,67,7.0,22.0,78,0.00,,,-99.99,Weather View 32 v60,2013-04-22 22:45:00,
2013-04-22 18:00:00,32.0,25.9,30.26,NNE,22,11.0,22.0,78,0.00,,,-99.99,Weather View 32 v60,2013-04-22 23:00:00,
2013-04-22 18:15:00,32.0,25.9,30.26,NE,45,1.0,22.0,78,0.00,,,-99.99,Weather View 32 v60,2013-04-22 23:15:00,
2013-04-22 18:29:00,32.0,25.9,30.26,NE,45,1.0,22.0,78,0.00,,,-99.99,Weather View 32 v60,2013-04-22 23:29:00,
2013-04-22 18:45:00,32.0,25.9,30.26,ENE,67,6.0,23.0,78,0.00,,,-99.99,Weather View 32 v60,2013-04-22 23:45:00,
2013-04-22 19:00:00,32.0,25.9,30.28,NNE,22,6.0,23.0,78,0.00,,,-99.99,Weather View 32 v60,2013-04-23 00:00:00,
2013-04-22 19:15:00,32.0,25.9,30.29,NNE,22,10.0,23.0,78,0.00,,,-99.99,Weather View 32 v60,2013-04-23 00:15:00,
2013-04-22 19:30:00,32.0,25.9,30.29,North,360,7.0,23.0,78,0.00,,,-99.99,Weather View 32 v60,2013-04-23 00:30:00,
2013-04-22 19:45:00,31.0,27.0,30.31,NNE,22,1.0,27.0,85,0.00,,,-99.99,Weather View 32 v60,2013-04-23 00:45:00,
2013-04-22 20:00:00,31.0,27.6,30.32,NE,45,1.0,27.0,87,0.00,,,-99.99,Weather View 32 v60,2013-04-23 01:00:00,
2013-04-22 20:15:00,31.0,27.9,30.32,NNE,22,0.0,27.0,88,0.00,,,-99.99,Weather View 32 v60,2013-04-23 01:15:00,
2013-04-22 20:30:00,31.0,27.9,30.32,NNE,22,7.0,27.0,88,0.00,,,-99.99,Weather View 32 v60,2013-04-23 01:30:00,
2013-04-22 20:45:00,31.0,28.4,30.32,North,360,4.0,22.0,90,0.00,,,-99.99,Weather View 32 v60,2013-04-23 01:45:00,
2013-04-22 21:00:00,31.0,28.4,30.33,NNE,22,4.0,22.0,90,0.00,,,-99.99,Weather View 32 v60,2013-04-23 02:00:00,
2013-04-22 21:15:00,31.0,28.4,30.34,North,360,4.0,22.0,90,0.00,,,-99.99,Weather View 32 v60,2013-04-23 02:15:00,
2013-04-22 21:30:00,31.0,28.4,30.34,NNE,22,1.0,17.0,90,0.00,,,-99.99,Weather View 32 v60,2013-04-23 02:30:00,
2013-04-22 21:45:00,31.0,28.4,30.34,NE,45,2.0,17.0,90,0.00,,,-99.99,Weather View 32 v60,2013-04-23 02:45:00,
2013-04-22 22:00:00,31.0,28.4,30.35,North,360,8.0,20.0,90,0.00,,,-99.99,Weather View 32 v60,2013-04-23 03:00:00,
2013-04-22 22:15:00,31.0,28.4,30.36,NNE,22,9.0,20.0,90,0.00,,,-99.99,Weather View 32 v60,2013-04-23 03:15:00,
2013-04-22 22:30:00,31.0,28.4,30.35,NE,45,3.0,20.0,90,0.00,,,-99.99,Weather View 32 v60,2013-04-23 03:30:00,
2013-04-22 22:45:00,30.0,27.4,30.34,NE,45,6.0,20.0,90,0.00,,,-99.99,Weather View 32 v60,2013-04-23 03:45:00,
2013-04-22 23:00:00,30.0,27.4,30.35,East,90,0.0,20.0,90,0.00,,,-99.99,Weather View 32 v60,2013-04-23 04:00:00,
2013-04-22 23:15:00,29.0,26.4,30.36,NNE,22,5.0,20.0,90,0.00,,,-99.99,Weather View 32 v60,2013-04-23 04:15:00,
2013-04-22 23:30:00,29.0,26.4,30.37,NNW,337,9.0,23.0,90,0.00,,,-99.99,Weather View 32 v60,2013-04-23 04:30:00,
2013-04-22 23:32:00,29.0,26.4,30.37,NNW,337,9.0,23.0,90,0.00,,,-99.99,Weather View 32 v60,2013-04-23 04:32:00,
2013-04-22 23:45:00,28.0,25.7,30.39,NNE,22,1.0,23.0,91,0.00,,,-99.99,Weather View 32 v60,2013-04-23 04:45:00,